createdAt,value
2023-02-22T00:01:35.638Z,33.31
2023-02-22T00:04:04.756Z,33.97
2023-02-22T00:06:31.427Z,33.96
2023-02-22T00:08:59.002Z,33.57
2023-02-22T00:11:26.553Z,35.12
2023-02-22T00:13:57.311Z,37.73
2023-02-22T00:16:25.982Z,40.28
2023-02-22T00:18:53.326Z,39.13
2023-02-22T00:21:23.024Z,37.28
2023-02-22T00:23:50.192Z,36.44
2023-02-22T00:26:20.493Z,35.73
2023-02-22T00:28:49.150Z,35.63
2023-02-22T00:31:16.337Z,35.66
2023-02-22T00:33:43.451Z,35.64
2023-02-22T00:36:11.896Z,35.87
2023-02-22T00:38:39.482Z,35.85
2023-02-22T00:41:07.321Z,35.66
2023-02-22T00:43:34.305Z,35.40
2023-02-22T00:46:01.153Z,35.85
2023-02-22T00:48:28.367Z,35.74
2023-02-22T00:50:57.767Z,35.65
2023-02-22T00:53:25.545Z,35.05
2023-02-22T00:55:53.134Z,33.96
2023-02-22T00:58:20.750Z,33.75
2023-02-22T01:00:48.937Z,33.55
2023-02-22T01:03:18.705Z,33.65
2023-02-22T01:05:45.897Z,33.97
2023-02-22T01:08:14.683Z,33.72
2023-02-22T01:10:41.711Z,34.34
2023-02-22T01:13:09.688Z,34.53
2023-02-22T01:15:38.191Z,34.54
2023-02-22T01:18:05.492Z,34.20
2023-02-22T01:20:32.845Z,35.05
2023-02-22T01:23:03.487Z,35.50
2023-02-22T01:25:31.834Z,35.00
2023-02-22T01:28:00.926Z,34.68
2023-02-22T01:30:31.162Z,35.25
2023-02-22T01:32:58.192Z,35.05
2023-02-22T01:35:28.527Z,35.03
2023-02-22T01:37:56.323Z,35.48
2023-02-22T01:40:30.637Z,35.70
2023-02-22T01:43:01.150Z,36.21
2023-02-22T01:45:30.749Z,35.90
2023-02-22T01:48:19.853Z,35.85
2023-02-22T01:51:11.330Z,35.81
2023-02-22T01:53:47.593Z,36.26
2023-02-22T01:56:15.336Z,36.36
2023-02-22T01:58:46.519Z,35.92
2023-02-22T02:01:14.691Z,36.19
2023-02-22T02:03:42.339Z,35.85
2023-02-22T02:06:14.338Z,35.83
2023-02-22T02:08:49.738Z,36.11
2023-02-22T02:11:20.149Z,35.72
2023-02-22T02:13:49.735Z,36.11
2023-02-22T02:16:16.454Z,36.26
2023-02-22T02:18:43.228Z,37.44
2023-02-22T02:21:16.058Z,37.88
2023-02-22T02:24:00.828Z,37.79
2023-02-22T02:26:47.360Z,38.56
2023-02-22T02:29:36.875Z,38.14
2023-02-22T02:32:06.594Z,38.58
2023-02-22T02:34:39.820Z,38.04
2023-02-22T02:37:12.309Z,38.50
2023-02-22T02:40:06.535Z,38.43
2023-02-22T02:42:43.553Z,39.34
2023-02-22T02:45:19.244Z,39.45
2023-02-22T02:47:52.250Z,39.05
2023-02-22T02:50:24.770Z,41.77
2023-02-22T02:52:55.515Z,41.13
2023-02-22T02:55:22.609Z,40.39
2023-02-22T02:57:49.157Z,40.63
2023-02-22T03:00:25.063Z,40.40
2023-02-22T03:03:00.787Z,40.18
2023-02-22T03:05:39.312Z,40.07
2023-02-22T03:08:18.127Z,40.17
2023-02-22T03:11:15.429Z,40.55
2023-02-22T03:14:04.224Z,40.33
2023-02-22T03:16:52.823Z,40.36
2023-02-22T03:19:40.649Z,40.35
2023-02-22T03:22:33.650Z,40.21
2023-02-22T03:25:02.181Z,40.38
2023-02-22T03:27:38.055Z,40.34
2023-02-22T03:30:29.262Z,40.39
2023-02-22T03:33:09.170Z,40.90
2023-02-22T03:35:41.334Z,40.66
2023-02-22T03:38:11.409Z,40.72
2023-02-22T03:40:43.468Z,40.63
2023-02-22T03:43:25.093Z,39.85
2023-02-22T03:45:52.182Z,40.16
2023-02-22T03:48:31.434Z,40.44
2023-02-22T03:50:58.549Z,40.36
2023-02-22T03:53:25.626Z,39.79
2023-02-22T03:55:55.594Z,39.78
2023-02-22T03:58:25.155Z,39.83
2023-02-22T04:00:53.438Z,39.71
2023-02-22T04:03:21.292Z,39.57
2023-02-22T04:05:48.568Z,39.95
2023-02-22T04:08:15.588Z,40.01
2023-02-22T04:10:42.479Z,40.33
2023-02-22T04:13:10.330Z,40.07
2023-02-22T04:15:37.283Z,39.86
2023-02-22T04:18:04.315Z,40.09
2023-02-22T04:20:31.812Z,39.91
2023-02-22T04:22:58.464Z,40.20
2023-02-22T04:25:25.061Z,40.15
2023-02-22T04:27:52.157Z,40.23
2023-02-22T04:30:19.714Z,40.42
2023-02-22T04:32:46.394Z,40.25
2023-02-22T04:35:12.992Z,40.48
2023-02-22T04:37:39.631Z,41.16
2023-02-22T04:40:11.564Z,41.29
2023-02-22T04:42:39.008Z,41.46
2023-02-22T04:45:08.124Z,42.66
2023-02-22T04:47:36.102Z,42.85
2023-02-22T04:50:03.906Z,43.01
2023-02-22T04:52:30.560Z,42.54
2023-02-22T04:54:57.166Z,42.47
2023-02-22T04:57:24.040Z,42.56
2023-02-22T04:59:51.355Z,42.92
2023-02-22T05:02:18.745Z,42.60
2023-02-22T05:04:45.647Z,42.89
2023-02-22T05:07:12.434Z,46.33
2023-02-22T05:09:39.163Z,46.50
2023-02-22T05:12:06.069Z,46.51
2023-02-22T05:14:33.042Z,45.71
2023-02-22T05:17:00.724Z,45.04
2023-02-22T05:19:27.342Z,44.08
2023-02-22T05:21:54.149Z,43.85
2023-02-22T05:24:20.805Z,44.18
2023-02-22T05:26:47.425Z,45.10
2023-02-22T05:29:14.514Z,44.42
2023-02-22T05:31:42.068Z,44.78
2023-02-22T05:34:09.153Z,44.17
2023-02-22T05:36:35.878Z,44.12
2023-02-22T05:39:03.982Z,45.38
2023-02-22T05:41:30.618Z,44.80
2023-02-22T05:43:59.178Z,45.22
2023-02-22T05:46:25.849Z,44.59
2023-02-22T05:48:52.559Z,44.46
2023-02-22T05:51:19.755Z,44.60
2023-02-22T05:53:46.444Z,43.91
2023-02-22T05:56:13.019Z,44.08
2023-02-22T05:58:39.631Z,43.54
2023-02-22T06:01:06.283Z,43.75
2023-02-22T06:03:36.306Z,43.61
2023-02-22T06:06:03.194Z,43.44
2023-02-22T06:08:31.206Z,44.17
2023-02-22T06:10:58.699Z,44.62
2023-02-22T06:13:25.801Z,44.40
2023-02-22T06:15:52.774Z,44.69
2023-02-22T06:18:19.410Z,44.44
2023-02-22T06:21:00.055Z,44.40
2023-02-22T06:23:27.374Z,44.68
2023-02-22T06:25:54.070Z,44.29
2023-02-22T06:28:20.741Z,44.26
2023-02-22T06:30:47.560Z,44.73
2023-02-22T06:33:14.195Z,44.69
2023-02-22T06:35:40.903Z,44.56
2023-02-22T06:38:07.589Z,44.51
2023-02-22T06:40:34.203Z,44.43
2023-02-22T06:43:00.870Z,44.31
2023-02-22T06:45:27.609Z,45.51
2023-02-22T06:47:54.490Z,45.30
2023-02-22T06:50:29.015Z,44.96
2023-02-22T06:52:56.846Z,44.67
2023-02-22T06:55:26.127Z,45.47
2023-02-22T06:57:53.016Z,46.52
2023-02-22T07:00:21.996Z,45.41
2023-02-22T07:02:49.021Z,44.61
2023-02-22T07:05:17.221Z,44.55
2023-02-22T07:07:43.783Z,45.54
2023-02-22T07:10:22.351Z,44.22
2023-02-22T07:12:49.242Z,43.93
2023-02-22T07:15:18.264Z,42.90
2023-02-22T07:17:45.167Z,42.65
2023-02-22T07:20:11.899Z,42.51
2023-02-22T07:22:39.350Z,42.17
2023-02-22T07:25:10.040Z,42.40
2023-02-22T07:27:38.321Z,43.54
2023-02-22T07:30:07.345Z,42.42
2023-02-22T07:32:34.041Z,42.76
2023-02-22T07:35:02.980Z,42.46
2023-02-22T07:37:30.336Z,41.51
2023-02-22T07:39:56.958Z,41.66
2023-02-22T07:42:23.848Z,41.33
2023-02-22T07:44:50.421Z,40.53
2023-02-22T07:47:17.068Z,40.47
2023-02-22T07:49:43.669Z,39.84
2023-02-22T07:52:10.324Z,39.82
2023-02-22T07:54:36.965Z,39.82
2023-02-22T07:57:03.728Z,39.92
2023-02-22T07:59:30.363Z,40.33
2023-02-22T08:01:56.998Z,39.87
2023-02-22T08:04:23.693Z,39.48
2023-02-22T08:06:50.450Z,39.71
2023-02-22T08:09:17.084Z,39.31
2023-02-22T08:11:43.710Z,39.25
2023-02-22T08:14:10.294Z,39.64
2023-02-22T08:16:36.951Z,40.21
2023-02-22T08:19:03.544Z,40.76
2023-02-22T08:21:30.502Z,39.11
2023-02-22T08:23:57.145Z,38.54
2023-02-22T08:26:25.439Z,39.79
2023-02-22T08:28:52.179Z,39.41
2023-02-22T08:31:19.243Z,38.59
2023-02-22T08:33:50.036Z,38.89
2023-02-22T08:36:17.657Z,38.33
2023-02-22T08:38:44.308Z,38.32
2023-02-22T08:41:11.024Z,38.77
2023-02-22T08:43:37.678Z,38.37
2023-02-22T08:46:04.575Z,38.13
2023-02-22T08:48:31.288Z,37.70
2023-02-22T08:50:58.135Z,38.20
2023-02-22T08:53:24.785Z,38.11
2023-02-22T08:55:51.487Z,37.85
2023-02-22T08:58:18.142Z,38.20
2023-02-22T09:00:45.186Z,37.80
2023-02-22T09:03:14.181Z,38.31
2023-02-22T09:05:42.178Z,37.72
2023-02-22T09:08:08.949Z,37.43
2023-02-22T09:10:36.238Z,37.12
2023-02-22T09:13:04.143Z,37.55
2023-02-22T09:15:32.122Z,37.49
2023-02-22T09:17:59.680Z,38.20
2023-02-22T09:20:27.538Z,38.24
2023-02-22T09:22:55.338Z,37.94
2023-02-22T09:25:23.484Z,37.80
2023-02-22T09:27:52.276Z,38.67
2023-02-22T09:30:24.739Z,39.21
2023-02-22T09:32:57.837Z,38.10
2023-02-22T09:35:27.408Z,36.92
2023-02-22T09:38:00.213Z,37.49
2023-02-22T09:40:30.648Z,37.39
2023-02-22T09:43:17.991Z,37.72
2023-02-22T09:46:05.927Z,37.29
2023-02-22T09:48:36.476Z,37.98
2023-02-22T09:51:11.840Z,37.54
2023-02-22T09:53:44.181Z,37.36
2023-02-22T09:56:18.330Z,36.11
2023-02-22T09:58:48.806Z,36.71
2023-02-22T10:01:45.216Z,36.34
2023-02-22T10:04:22.172Z,36.22
2023-02-22T10:06:57.673Z,35.85
2023-02-22T10:09:29.277Z,36.25
2023-02-22T10:12:02.806Z,36.33
2023-02-22T10:14:35.154Z,35.14
2023-02-22T10:17:33.438Z,35.59
2023-02-22T10:20:18.895Z,35.74
2023-02-22T10:23:04.660Z,35.43
2023-02-22T10:25:36.599Z,35.52
2023-02-22T10:28:15.876Z,34.88
2023-02-22T10:30:54.743Z,34.71
2023-02-22T10:33:29.815Z,34.26
2023-02-22T10:35:56.509Z,34.07
2023-02-22T10:38:26.723Z,33.72
2023-02-22T10:40:59.837Z,33.81
2023-02-22T10:43:26.933Z,34.54
2023-02-22T10:45:58.297Z,33.93
2023-02-22T10:48:26.634Z,33.87
2023-02-22T10:50:58.526Z,33.88
2023-02-22T10:53:27.648Z,34.09
2023-02-22T10:56:13.134Z,33.63
2023-02-22T10:58:51.887Z,33.30
2023-02-22T11:01:32.600Z,32.74
2023-02-22T11:04:10.541Z,33.15
2023-02-22T11:06:39.670Z,32.92
2023-02-22T11:09:10.408Z,32.67
2023-02-22T11:11:39.883Z,33.24
2023-02-22T11:14:07.494Z,32.79
2023-02-22T11:16:40.771Z,32.75
2023-02-22T11:19:16.288Z,32.53
2023-02-22T11:21:44.025Z,32.44
2023-02-22T11:24:13.863Z,32.13
2023-02-22T11:26:49.208Z,32.54
2023-02-22T11:29:22.759Z,32.09
2023-02-22T11:31:49.819Z,32.08
2023-02-22T11:34:45.919Z,32.01
2023-02-22T11:37:34.644Z,31.70
2023-02-22T11:40:21.470Z,31.33
2023-02-22T11:43:12.379Z,31.91
2023-02-22T11:45:44.149Z,32.07
2023-02-22T11:48:21.098Z,31.38
2023-02-22T11:50:56.510Z,30.76
2023-02-22T11:53:47.988Z,30.95
2023-02-22T11:56:36.950Z,31.35
2023-02-22T11:59:21.682Z,31.00
2023-02-22T12:01:48.211Z,31.14
2023-02-22T12:04:53.601Z,30.97
2023-02-22T12:07:44.632Z,31.08
2023-02-22T12:10:27.707Z,30.04
2023-02-22T12:13:13.609Z,29.10
2023-02-22T12:16:01.499Z,28.98
2023-02-22T12:18:59.203Z,29.42
2023-02-22T12:21:30.273Z,29.91
2023-02-22T12:24:07.260Z,29.69
2023-02-22T12:26:41.515Z,29.46
2023-02-22T12:29:29.537Z,29.31
2023-02-22T12:32:22.302Z,29.84
2023-02-22T12:34:56.087Z,29.83
2023-02-22T12:37:28.157Z,29.84
2023-02-22T12:40:14.942Z,29.85
2023-02-22T12:42:52.169Z,29.91
2023-02-22T12:45:30.870Z,29.64
2023-02-22T12:48:18.633Z,29.59
2023-02-22T12:50:54.113Z,29.54
2023-02-22T12:53:38.284Z,29.39
2023-02-22T12:56:37.247Z,29.84
2023-02-22T12:59:23.118Z,30.06
2023-02-22T13:01:58.411Z,30.81
2023-02-22T13:04:27.736Z,30.89
2023-02-22T13:07:10.224Z,30.23
2023-02-22T13:09:43.050Z,30.43
2023-02-22T13:12:12.649Z,30.32
2023-02-22T13:14:51.400Z,30.07
2023-02-22T13:18:04.885Z,30.13
2023-02-22T13:21:09.392Z,30.12
2023-02-22T13:24:11.189Z,29.55
2023-02-22T13:26:54.342Z,29.46
2023-02-22T13:29:28.846Z,29.87
2023-02-22T13:32:29.087Z,29.97
2023-02-22T13:34:56.834Z,28.97
2023-02-22T13:37:54.956Z,29.30
2023-02-22T13:40:36.625Z,29.45
2023-02-22T13:43:09.302Z,29.11
2023-02-22T13:45:36.609Z,29.04
2023-02-22T13:48:13.370Z,29.45
2023-02-22T13:50:58.074Z,29.70
2023-02-22T13:53:29.445Z,29.70
2023-02-22T13:55:59.276Z,30.26
2023-02-22T13:58:26.121Z,29.54
2023-02-22T14:00:58.595Z,29.93
2023-02-22T14:03:34.324Z,29.82
2023-02-22T14:06:01.870Z,29.43
2023-02-22T14:08:28.889Z,29.99
2023-02-22T14:10:57.685Z,30.72
2023-02-22T14:13:29.268Z,30.45
2023-02-22T14:16:00.015Z,30.91
2023-02-22T14:18:36.000Z,30.30
2023-02-22T14:21:13.492Z,30.84
2023-02-22T14:23:42.231Z,30.69
2023-02-22T14:26:42.678Z,30.40
2023-02-22T14:29:12.754Z,31.12
2023-02-22T14:31:44.959Z,31.66
2023-02-22T14:34:17.558Z,31.55
2023-02-22T14:37:01.117Z,31.71
2023-02-22T14:39:43.575Z,31.60
2023-02-22T14:42:31.464Z,31.65
2023-02-22T14:45:03.176Z,31.98
2023-02-22T14:47:39.910Z,32.44
2023-02-22T14:50:23.182Z,32.87
2023-02-22T14:53:01.199Z,32.72
2023-02-22T14:55:31.499Z,33.04
2023-02-22T14:58:18.779Z,32.85
2023-02-22T15:00:47.809Z,32.65
2023-02-22T15:03:37.543Z,32.31
2023-02-22T15:06:22.034Z,32.88
2023-02-22T15:09:04.464Z,32.50
2023-02-22T15:11:34.624Z,32.15
2023-02-22T15:14:02.619Z,33.23
2023-02-22T15:16:34.247Z,33.58
2023-02-22T15:19:07.873Z,33.88
2023-02-22T15:21:35.574Z,34.04
2023-02-22T15:24:07.813Z,33.96
2023-02-22T15:27:00.279Z,33.48
2023-02-22T15:29:40.165Z,34.76
2023-02-22T15:32:56.995Z,34.45
2023-02-22T15:35:31.806Z,35.13
2023-02-22T15:38:20.171Z,34.81
2023-02-22T15:40:50.696Z,34.93
2023-02-22T15:43:24.410Z,34.15
2023-02-22T15:45:52.285Z,34.17
2023-02-22T15:48:19.422Z,34.13
2023-02-22T15:51:19.982Z,34.48
2023-02-22T15:53:48.659Z,34.37
2023-02-22T15:56:19.184Z,35.07
2023-02-22T15:58:47.659Z,34.57
2023-02-22T16:01:18.939Z,34.91
2023-02-22T16:03:53.173Z,34.95
2023-02-22T16:06:36.016Z,36.45
2023-02-22T16:09:30.375Z,36.22
2023-02-22T16:12:21.397Z,36.09
2023-02-22T16:14:52.557Z,36.11
2023-02-22T16:17:25.464Z,36.19
2023-02-22T16:19:53.172Z,36.62
2023-02-22T16:22:35.756Z,36.61
2023-02-22T16:25:27.234Z,36.32
2023-02-22T16:27:58.026Z,36.52
2023-02-22T16:30:39.991Z,36.62
2023-02-22T16:33:13.474Z,37.05
2023-02-22T16:35:40.564Z,36.69
2023-02-22T16:38:16.940Z,37.37
2023-02-22T16:40:55.502Z,37.28
2023-02-22T16:43:24.572Z,37.30
2023-02-22T16:45:52.987Z,37.49
2023-02-22T16:48:21.364Z,37.38
2023-02-22T16:50:51.200Z,37.69
2023-02-22T16:53:21.087Z,37.85
2023-02-22T16:55:48.927Z,38.03
2023-02-22T16:58:18.222Z,37.86
2023-02-22T17:00:45.004Z,37.67
2023-02-22T17:03:17.609Z,37.70
2023-02-22T17:05:44.778Z,38.40
2023-02-22T17:08:11.431Z,38.45
2023-02-22T17:10:38.307Z,38.76
2023-02-22T17:13:21.785Z,39.14
2023-02-22T17:15:49.799Z,39.04
2023-02-22T17:18:22.548Z,38.55
2023-02-22T17:20:51.020Z,38.76
2023-02-22T17:23:18.179Z,38.46
2023-02-22T17:26:05.141Z,39.00
2023-02-22T17:28:32.194Z,38.64
2023-02-22T17:31:02.985Z,39.47
2023-02-22T17:33:33.045Z,39.13
2023-02-22T17:36:02.185Z,38.67
2023-02-22T17:38:30.391Z,39.07
2023-02-22T17:40:58.884Z,38.64
2023-02-22T17:43:27.871Z,38.54
2023-02-22T17:45:55.052Z,38.26
2023-02-22T17:48:23.984Z,39.21
2023-02-22T17:50:51.485Z,39.27
2023-02-22T17:53:21.866Z,38.64
2023-02-22T17:55:49.364Z,38.49
2023-02-22T17:58:16.424Z,38.56
2023-02-22T18:00:46.668Z,38.74
2023-02-22T18:03:21.135Z,38.60
2023-02-22T18:05:49.847Z,38.23
2023-02-22T18:08:16.496Z,38.25
2023-02-22T18:10:43.837Z,38.25
2023-02-22T18:13:16.828Z,38.32
2023-02-22T18:15:44.062Z,38.53
2023-02-22T18:18:11.431Z,38.66
2023-02-22T18:20:43.880Z,38.49
2023-02-22T18:23:19.785Z,38.23
2023-02-22T18:26:07.686Z,38.30
2023-02-22T18:28:36.466Z,38.98
2023-02-22T18:31:10.133Z,39.06
2023-02-22T18:33:37.218Z,39.03
2023-02-22T18:36:04.647Z,39.26
2023-02-22T18:38:31.339Z,39.23
2023-02-22T18:41:06.699Z,39.16
2023-02-22T18:43:40.498Z,39.37
2023-02-22T18:46:16.181Z,39.52
2023-02-22T18:48:43.903Z,39.47
2023-02-22T18:51:13.302Z,39.36
2023-02-22T18:53:46.621Z,40.10
2023-02-22T18:56:21.989Z,40.53
2023-02-22T18:58:53.589Z,40.53
2023-02-22T19:01:20.713Z,40.52
2023-02-22T19:03:47.888Z,40.57
2023-02-22T19:06:15.737Z,40.65
2023-02-22T19:08:44.104Z,40.72
2023-02-22T19:11:17.874Z,40.80
2023-02-22T19:13:48.975Z,40.71
2023-02-22T19:16:19.860Z,40.99
2023-02-22T19:18:53.286Z,40.92
2023-02-22T19:21:21.110Z,40.84
2023-02-22T19:23:49.251Z,40.95
2023-02-22T19:26:24.088Z,41.23
2023-02-22T19:28:52.869Z,41.58
2023-02-22T19:31:25.954Z,41.53
2023-02-22T19:33:52.997Z,41.48
2023-02-22T19:36:23.149Z,41.52
2023-02-22T19:38:49.957Z,41.80
2023-02-22T19:41:20.280Z,41.72
2023-02-22T19:43:48.829Z,42.06
2023-02-22T19:46:21.178Z,41.87
2023-02-22T19:48:49.332Z,41.95
2023-02-22T19:51:17.632Z,42.33
2023-02-22T19:53:45.484Z,42.92
2023-02-22T19:56:18.924Z,42.91
2023-02-22T19:58:48.390Z,43.22
2023-02-22T20:01:23.247Z,42.57
2023-02-22T20:03:54.432Z,42.63
2023-02-22T20:06:28.095Z,42.91
2023-02-22T20:08:55.887Z,42.99
2023-02-22T20:11:23.565Z,42.59
2023-02-22T20:13:50.684Z,42.35
2023-02-22T20:16:17.314Z,42.13
2023-02-22T20:18:45.385Z,41.95
2023-02-22T20:21:20.214Z,42.88
2023-02-22T20:23:47.262Z,42.58
2023-02-22T20:26:24.312Z,42.09
2023-02-22T20:28:52.297Z,42.17
2023-02-22T20:31:20.258Z,42.26
2023-02-22T20:33:49.589Z,42.36
2023-02-22T20:36:18.574Z,42.68
2023-02-22T20:38:45.650Z,42.73
2023-02-22T20:41:15.271Z,42.64
2023-02-22T20:43:42.081Z,42.75
2023-02-22T20:46:08.778Z,42.83
2023-02-22T20:48:35.460Z,42.79
2023-02-22T20:51:06.844Z,42.92
2023-02-22T20:53:34.512Z,43.41
2023-02-22T20:56:01.812Z,43.33
2023-02-22T20:58:29.318Z,43.38
2023-02-22T21:00:55.916Z,43.65
2023-02-22T21:03:22.724Z,43.75
2023-02-22T21:05:49.368Z,43.82
2023-02-22T21:08:15.931Z,43.80
2023-02-22T21:10:44.324Z,43.71
2023-02-22T21:13:11.635Z,43.89
2023-02-22T21:15:43.450Z,43.84
2023-02-22T21:18:11.211Z,44.06
2023-02-22T21:20:40.763Z,44.30
2023-02-22T21:23:08.306Z,44.42
2023-02-22T21:25:34.983Z,44.26
2023-02-22T21:28:01.931Z,44.03
2023-02-22T21:30:29.518Z,44.57
2023-02-22T21:32:56.194Z,45.49
2023-02-22T21:35:24.615Z,44.91
2023-02-22T21:37:52.554Z,44.87
2023-02-22T21:40:19.676Z,44.88
2023-02-22T21:42:48.134Z,44.79
2023-02-22T21:45:20.713Z,44.77
2023-02-22T21:47:49.020Z,44.57
2023-02-22T21:50:19.596Z,44.77
2023-02-22T21:52:47.849Z,44.93
2023-02-22T21:55:15.051Z,45.21
2023-02-22T21:57:42.960Z,45.02
2023-02-22T22:00:18.403Z,45.42
2023-02-22T22:02:46.290Z,45.44
2023-02-22T22:05:18.147Z,45.44
2023-02-22T22:07:44.755Z,45.47
2023-02-22T22:10:17.053Z,45.41
2023-02-22T22:12:46.248Z,45.14
2023-02-22T22:15:17.667Z,45.36
2023-02-22T22:17:45.131Z,45.29
2023-02-22T22:20:16.618Z,45.26
2023-02-22T22:22:46.095Z,45.38
2023-02-22T22:25:17.167Z,45.64
2023-02-22T22:27:44.245Z,45.56
2023-02-22T22:30:11.956Z,45.51
2023-02-22T22:32:39.050Z,45.52
2023-02-22T22:35:09.526Z,45.38
2023-02-22T22:37:36.126Z,45.33
2023-02-22T22:40:05.046Z,45.32
2023-02-22T22:42:31.641Z,45.76
2023-02-22T22:44:58.260Z,45.71
2023-02-22T22:47:24.901Z,45.98
2023-02-22T22:49:52.933Z,45.99
2023-02-22T22:52:19.620Z,45.86
2023-02-22T22:54:46.223Z,46.10
2023-02-22T22:57:13.700Z,45.99
2023-02-22T22:59:40.317Z,46.14
2023-02-22T23:02:10.933Z,45.79
2023-02-22T23:04:38.093Z,45.74
2023-02-22T23:07:06.634Z,45.89
2023-02-22T23:09:35.060Z,45.79
2023-02-22T23:12:15.093Z,46.05
2023-02-22T23:14:46.087Z,46.38
2023-02-22T23:17:31.106Z,46.19
2023-02-22T23:19:58.005Z,46.14
2023-02-22T23:22:24.777Z,46.34
2023-02-22T23:24:51.383Z,46.40
2023-02-22T23:27:19.046Z,46.35
2023-02-22T23:29:46.882Z,46.60
2023-02-22T23:32:14.365Z,46.49
2023-02-22T23:34:41.615Z,46.99
2023-02-22T23:37:10.442Z,46.77
2023-02-22T23:39:37.846Z,46.82
2023-02-22T23:42:04.736Z,46.55
2023-02-22T23:44:31.534Z,46.93
2023-02-22T23:46:58.222Z,47.15
2023-02-22T23:49:38.032Z,47.12
2023-02-22T23:52:06.363Z,47.53
2023-02-22T23:54:36.612Z,47.78
2023-02-22T23:57:04.604Z,48.26
2023-02-22T23:59:32.763Z,47.58
